Flugplatz Pennewitz (EDOS)

Hier findest Du alle Informationen zum Flugplatz Pennewitz (EDOS).

Informationen für Piloten zum Flugplatz Pennewitz

Hier findest Du alle relevanten Informationen, die Du als Pilot benötigst, um Pennewitz anzufliegen.

Flugplatz: Pennewitz ICAO-Code: EDOS
Frequenz Turm: 130.640 Mhz GAFOR Gebiet: 27
Frequenz Ground: 130.640 Mhz Mogas: nein
Platzrunde: NW 2200 ft Landegebühr: -
Platzhöhe: - Sunrise: 03:02 Uhr UTC
Pisten: 06/24 - 750 m x 30 m, GRAS Sunset: 19:34 Uhr UTC

Flugwetter am Flugplatz Pennewitz

Die METAR Information stammen aus EDDE (35.27 km entfernt).

METAR Code:
2022/06/21 12:50
EDDE 211250Z AUTO 06004KT 340V120 CAVOK 22/05 Q1015 NOSIG

Flugschulen am Flugplatz Pennewitz

Am Flugplatz Pennewitz gibt es eine Flugschule.

Benachbarte Flugplätze und Flugschulen

Es gibt 13 weitere Flugplätze in einem Umkreis von 50 km um den Flugplatz Pennewitz.

Jetzt anmelden

Passwort vergessen

Umfrage Archiv

Sendet Ihr ADS-B und/oder FLARM?

Ja
83.2 %
Nein
16.8 %
Stimmen: 173 | Diskussion
Anzeige: Roland Aircraft
Statistik Alle Mitglieder

Aktuell sind 44 Besucher online, davon 1 Mitglied und 43 Gäste.


Mitglieder online:
aviatrix 

Anzeige: ULPower Aero Engines Anzeige: Pocket FMS